Time;durP1;ratioP1;P1;durP2;ratioP2;P2;SDS_P1;SDS_P2;PMS_P1;PMS_P2;Temp;Humidity;BMP_temperature;BMP_pressure;BME280_temperature;BME280_humidity;BME280_pressure;Samples;Min_cycle;Max_cycle;Signal;HPM_P1;HPM_P2
2022/05/22 00:02:16;;;;;;;0.00;0.00;;;;;;;;;;5047811;28;20088;-61
2022/05/22 00:04:43;;;;;;;0.00;0.00;;;;;;;;;;5048260;28;20100;-61
2022/05/22 00:07:09;;;;;;;0.00;0.00;;;;;;;;;;5047494;28;20057;-61
2022/05/22 00:09:36;;;;;;;0.43;0.43;;;;;;;;;;5048000;28;20085;-61
2022/05/22 00:12:03;;;;;;;0.00;0.00;;;;;;;;;;5047769;28;20120;-61
2022/05/22 00:14:29;;;;;;;0.00;0.00;;;;;;;;;;5047573;28;20053;-61
2022/05/22 00:16:56;;;;;;;0.00;0.00;;;;;;;;;;5047843;28;20096;-61
2022/05/22 00:19:24;;;;;;;0.00;0.00;;;;;;;;;;5047655;28;20057;-61
2022/05/22 00:21:51;;;;;;;0.00;0.00;;;;;;;;;;5047398;28;20054;-61
2022/05/22 00:24:18;;;;;;;0.00;0.00;;;;;;;;;;5047266;28;20964;-60
2022/05/22 00:26:45;;;;;;;0.00;0.00;;;;;;;;;;5047462;28;20123;-61
2022/05/22 00:29:12;;;;;;;0.00;0.00;;;;;;;;;;5048322;28;20112;-61
2022/05/22 00:31:38;;;;;;;0.00;0.00;;;;;;;;;;5048170;28;20065;-61
2022/05/22 00:34:05;;;;;;;0.00;0.00;;;;;;;;;;5047272;28;20127;-61
2022/05/22 00:36:31;;;;;;;0.00;0.00;;;;;;;;;;5047486;28;20053;-61
2022/05/22 00:38:58;;;;;;;0.00;0.00;;;;;;;;;;5047474;28;20131;-61
2022/05/22 00:41:24;;;;;;;0.00;0.00;;;;;;;;;;5047617;28;20220;-61
2022/05/22 00:43:52;;;;;;;0.00;0.00;;;;;;;;;;5047491;28;20107;-61
2022/05/22 00:46:20;;;;;;;0.00;0.00;;;;;;;;;;5047713;28;20057;-61
2022/05/22 00:48:49;;;;;;;0.00;0.00;;;;;;;;;;5046509;28;20077;-61
2022/05/22 00:51:21;;;;;;;0.00;0.00;;;;;;;;;;5047000;28;20452;-61
2022/05/22 00:53:50;;;;;;;0.00;0.00;;;;;;;;;;5047890;28;20108;-61
2022/05/22 00:56:18;;;;;;;0.00;0.00;;;;;;;;;;5046777;28;20053;-61
2022/05/22 00:58:45;;;;;;;0.00;0.00;;;;;;;;;;5047144;28;20574;-61
2022/05/22 01:01:11;;;;;;;0.00;0.00;;;;;;;;;;5046751;28;20495;-61
2022/05/22 01:03:38;;;;;;;0.00;0.00;;;;;;;;;;5047018;28;20049;-61
2022/05/22 01:06:24;;;;;;;0.00;0.00;;;;;;;;;;5046604;28;20163;-61
2022/05/22 01:08:51;;;;;;;0.00;0.00;;;;;;;;;;5046870;28;20496;-61
2022/05/22 01:11:23;;;;;;;0.00;0.00;;;;;;;;;;5046791;28;20053;-61
2022/05/22 01:13:56;;;;;;;0.00;0.00;;;;;;;;;;5047164;28;20085;-61
2022/05/22 01:16:25;;;;;;;0.00;0.00;;;;;;;;;;5046981;28;20053;-61
2022/05/22 01:18:51;;;;;;;;;;;;;;;;;;5047439;28;20061;-61
2022/05/22 01:21:19;;;;;;;0.00;0.00;;;;;;;;;;5046093;28;45033;-61
2022/05/22 01:23:46;;;;;;;0.00;0.00;;;;;;;;;;5046664;28;20107;-61
2022/05/22 01:26:13;;;;;;;0.00;0.00;;;;;;;;;;5046389;28;20061;-61
2022/05/22 01:28:39;;;;;;;0.03;0.03;;;;;;;;;;5046971;28;20081;-61
2022/05/22 01:31:06;;;;;;;0.00;0.00;;;;;;;;;;5046409;28;20112;-61
2022/05/22 01:33:33;;;;;;;0.05;0.05;;;;;;;;;;5046184;28;20188;-61
2022/05/22 01:36:00;;;;;;;0.00;0.00;;;;;;;;;;5046553;28;20503;-61
2022/05/22 01:38:26;;;;;;;0.00;0.00;;;;;;;;;;5047309;28;20940;-61
2022/05/22 01:40:52;;;;;;;0.00;0.00;;;;;;;;;;5047058;28;20535;-61
2022/05/22 01:43:19;;;;;;;0.00;0.00;;;;;;;;;;5047232;28;20049;-61
2022/05/22 01:45:45;;;;;;;0.00;0.00;;;;;;;;;;5046653;28;20096;-61
2022/05/22 01:48:11;;;;;;;0.00;0.00;;;;;;;;;;5045985;28;20057;-61
2022/05/22 01:50:39;;;;;;;0.00;0.00;;;;;;;;;;5046238;28;20084;-61
2022/05/22 01:53:05;;;;;;;0.00;0.00;;;;;;;;;;5046472;28;20112;-61
2022/05/22 01:55:32;;;;;;;0.00;0.00;;;;;;;;;;5045917;28;20558;-61
2022/05/22 01:57:58;;;;;;;0.00;0.00;;;;;;;;;;5046956;28;20550;-61
2022/05/22 02:00:26;;;;;;;0.00;0.00;;;;;;;;;;5046009;28;20108;-61
2022/05/22 02:02:55;;;;;;;0.00;0.00;;;;;;;;;;5049124;28;20058;-61
2022/05/22 02:05:22;;;;;;;0.00;0.00;;;;;;;;;;5049829;28;20062;-61
2022/05/22 02:10:35;;;;;;;0.00;0.00;;;;;;;;;;5049434;28;20057;-61
2022/05/22 02:13:02;;;;;;;0.00;0.00;;;;;;;;;;5050179;28;20591;-61
2022/05/22 02:15:28;;;;;;;0.00;0.00;;;;;;;;;;5049493;28;20077;-61
2022/05/22 02:17:55;;;;;;;0.00;0.00;;;;;;;;;;5049701;28;20107;-61
2022/05/22 02:20:22;;;;;;;0.00;0.00;;;;;;;;;;5049811;28;20123;-61
2022/05/22 02:22:49;;;;;;;0.00;0.00;;;;;;;;;;5050062;28;20057;-61
2022/05/22 02:25:17;;;;;;;0.00;0.00;;;;;;;;;;5049876;28;20084;-61
2022/05/22 02:27:43;;;;;;;0.00;0.00;;;;;;;;;;5049300;28;20108;-61
2022/05/22 02:30:11;;;;;;;0.00;0.00;;;;;;;;;;5049515;28;20116;-61
2022/05/22 02:32:37;;;;;;;0.00;0.00;;;;;;;;;;5049359;28;20108;-61
2022/05/22 02:35:08;;;;;;;0.00;0.00;;;;;;;;;;5049608;28;20081;-61
2022/05/22 02:37:44;;;;;;;0.00;0.00;;;;;;;;;;5049196;28;20546;-60
2022/05/22 02:40:10;;;;;;;0.00;0.00;;;;;;;;;;5049559;28;20057;-61
2022/05/22 02:42:41;;;;;;;0.00;0.00;;;;;;;;;;5049420;28;20049;-61
2022/05/22 02:45:07;;;;;;;0.00;0.00;;;;;;;;;;5049155;28;20104;-61
2022/05/22 02:47:34;;;;;;;0.00;0.00;;;;;;;;;;5049026;28;20518;-61
2022/05/22 02:50:01;;;;;;;0.00;0.00;;;;;;;;;;5049396;28;20886;-61
2022/05/22 02:52:27;;;;;;;0.00;0.00;;;;;;;;;;5048968;28;20108;-61
2022/05/22 02:54:53;;;;;;;0.30;0.20;;;;;;;;;;5050151;28;20103;-61
2022/05/22 02:57:22;;;;;;;0.00;0.00;;;;;;;;;;5049379;28;20049;-61
2022/05/22 02:59:49;;;;;;;0.00;0.00;;;;;;;;;;5048919;28;20062;-61
2022/05/22 03:02:15;;;;;;;0.00;0.00;;;;;;;;;;5048818;28;20057;-61
2022/05/22 03:04:42;;;;;;;0.00;0.00;;;;;;;;;;5048728;28;20061;-61
2022/05/22 03:07:09;;;;;;;0.00;0.00;;;;;;;;;;5048842;28;20504;-61
2022/05/22 03:09:37;;;;;;;0.00;0.00;;;;;;;;;;5049473;28;20057;-61
2022/05/22 03:12:07;;;;;;;0.00;0.00;;;;;;;;;;5048633;28;20057;-61
2022/05/22 03:14:33;;;;;;;0.00;0.00;;;;;;;;;;5048761;28;20903;-61
2022/05/22 03:17:00;;;;;;;0.00;0.00;;;;;;;;;;5048604;28;20058;-61
2022/05/22 03:19:26;;;;;;;0.00;0.00;;;;;;;;;;5048438;28;20511;-61
2022/05/22 03:21:52;;;;;;;0.00;0.00;;;;;;;;;;5049239;28;20053;-61
2022/05/22 03:24:19;;;;;;;0.00;0.00;;;;;;;;;;5048746;28;20054;-61
2022/05/22 03:26:45;;;;;;;0.00;0.00;;;;;;;;;;5048944;28;20054;-61
2022/05/22 03:29:11;;;;;;;0.00;0.00;;;;;;;;;;5048434;28;20100;-61
2022/05/22 03:31:38;;;;;;;0.00;0.00;;;;;;;;;;5048975;28;20085;-61
2022/05/22 03:34:04;;;;;;;0.00;0.00;;;;;;;;;;5048355;28;20108;-61
2022/05/22 03:36:31;;;;;;;0.00;0.00;;;;;;;;;;5048365;28;20049;-61
2022/05/22 03:38:57;;;;;;;0.00;0.00;;;;;;;;;;5047733;28;20092;-61
2022/05/22 03:41:23;;;;;;;0.00;0.00;;;;;;;;;;5048964;28;20057;-61
2022/05/22 03:43:50;;;;;;;0.00;0.00;;;;;;;;;;5048344;28;20100;-61
2022/05/22 03:46:17;;;;;;;0.00;0.00;;;;;;;;;;5047913;28;20578;-61
2022/05/22 03:48:43;;;;;;;0.00;0.00;;;;;;;;;;5048352;28;20068;-61
2022/05/22 03:51:10;;;;;;;0.00;0.00;;;;;;;;;;5047120;28;20107;-61
2022/05/22 03:53:36;;;;;;;0.00;0.00;;;;;;;;;;5046819;28;20057;-61
2022/05/22 03:56:28;;;;;;;0.00;0.00;;;;;;;;;;5046752;28;20588;-61
2022/05/22 03:58:55;;;;;;;0.00;0.00;;;;;;;;;;5045722;28;20058;-61
2022/05/22 04:01:21;;;;;;;0.00;0.00;;;;;;;;;;5046545;28;20131;-61
2022/05/22 04:03:47;;;;;;;0.00;0.00;;;;;;;;;;5046825;28;20116;-61
2022/05/22 04:06:14;;;;;;;0.00;0.00;;;;;;;;;;5046255;28;20057;-61
2022/05/22 04:08:40;;;;;;;0.00;0.00;;;;;;;;;;5047070;28;20116;-61
2022/05/22 04:11:08;;;;;;;0.00;0.00;;;;;;;;;;5047035;28;20115;-61
2022/05/22 04:13:34;;;;;;;0.00;0.00;;;;;;;;;;5046658;28;20104;-61
2022/05/22 04:16:01;;;;;;;0.00;0.00;;;;;;;;;;5046409;28;20054;-61
2022/05/22 04:18:27;;;;;;;0.00;0.00;;;;;;;;;;5046247;28;20049;-61
2022/05/22 04:20:54;;;;;;;0.00;0.00;;;;;;;;;;5046968;28;20561;-61
2022/05/22 04:26:06;;;;;;;0.00;0.00;;;;;;;;;;5046212;28;20104;-61
2022/05/22 04:28:32;;;;;;;0.00;0.00;;;;;;;;;;5046168;28;20057;-61
2022/05/22 04:30:59;;;;;;;0.00;0.00;;;;;;;;;;5046578;28;20131;-61
2022/05/22 04:33:26;;;;;;;0.00;0.00;;;;;;;;;;5046258;28;20112;-61
2022/05/22 04:35:52;;;;;;;0.00;0.00;;;;;;;;;;5045816;28;20061;-61
2022/05/22 04:38:19;;;;;;;0.00;0.00;;;;;;;;;;5046417;28;20062;-61
2022/05/22 04:40:55;;;;;;;0.00;0.00;;;;;;;;;;5046561;28;20085;-61
2022/05/22 04:43:22;;;;;;;0.00;0.00;;;;;;;;;;5046572;28;20057;-61
2022/05/22 04:45:50;;;;;;;0.00;0.00;;;;;;;;;;5046116;28;20054;-61
2022/05/22 04:48:17;;;;;;;0.00;0.00;;;;;;;;;;5007881;28;1074435;-61
2022/05/22 04:50:44;;;;;;;0.00;0.00;;;;;;;;;;5047280;28;20550;-61
2022/05/22 04:53:11;;;;;;;0.00;0.00;;;;;;;;;;5047558;28;20057;-61
2022/05/22 04:55:37;;;;;;;0.00;0.00;;;;;;;;;;5046944;28;20138;-61
2022/05/22 04:58:04;;;;;;;0.00;0.00;;;;;;;;;;5047480;28;20085;-61
2022/05/22 05:00:30;;;;;;;0.00;0.00;;;;;;;;;;5047356;28;20569;-61
2022/05/22 05:02:56;;;;;;;0.00;0.00;;;;;;;;;;5047097;28;20053;-61
2022/05/22 05:05:23;;;;;;;0.00;0.00;;;;;;;;;;5046664;28;20111;-61
2022/05/22 05:07:49;;;;;;;0.00;0.00;;;;;;;;;;5047153;28;20143;-61
2022/05/22 05:10:16;;;;;;;0.10;0.10;;;;;;;;;;5047336;28;20076;-61
2022/05/22 05:12:42;;;;;;;0.00;0.00;;;;;;;;;;5047435;28;20053;-61
2022/05/22 05:15:11;;;;;;;0.00;0.00;;;;;;;;;;5047075;28;20098;-61
2022/05/22 05:17:39;;;;;;;0.00;0.00;;;;;;;;;;5046642;28;20058;-61
2022/05/22 05:20:06;;;;;;;0.00;0.00;;;;;;;;;;5046884;28;20115;-61
2022/05/22 05:22:32;;;;;;;0.00;0.00;;;;;;;;;;5046949;28;20116;-61
2022/05/22 05:24:59;;;;;;;0.00;0.00;;;;;;;;;;5047689;28;20057;-61
2022/05/22 05:27:26;;;;;;;0.00;0.00;;;;;;;;;;5047189;28;20050;-61
2022/05/22 05:30:04;;;;;;;;;;;;;;;;;;5047285;28;20045;-61
2022/05/22 05:32:30;;;;;;;0.00;0.00;;;;;;;;;;5046664;28;46089;-61
2022/05/22 05:34:57;;;;;;;0.00;0.00;;;;;;;;;;5046993;28;20061;-61
2022/05/22 05:37:24;;;;;;;0.00;0.00;;;;;;;;;;5046196;28;20089;-61
2022/05/22 05:39:50;;;;;;;0.00;0.00;;;;;;;;;;5047183;28;20057;-61
2022/05/22 05:42:17;;;;;;;0.00;0.00;;;;;;;;;;5046401;28;20116;-61
2022/05/22 05:44:43;;;;;;;0.00;0.00;;;;;;;;;;5046059;28;20546;-61
2022/05/22 05:47:10;;;;;;;0.00;0.00;;;;;;;;;;5046929;28;20103;-61
2022/05/22 05:49:37;;;;;;;0.00;0.00;;;;;;;;;;5046064;28;20084;-61
2022/05/22 05:52:04;;;;;;;0.00;0.00;;;;;;;;;;5046550;28;20540;-61
2022/05/22 05:54:42;;;;;;;0.00;0.00;;;;;;;;;;5046213;28;20057;-61
2022/05/22 05:57:12;;;;;;;0.10;0.10;;;;;;;;;;5045862;28;20138;-61
2022/05/22 05:59:38;;;;;;;0.00;0.00;;;;;;;;;;5046762;28;20053;-61
2022/05/22 06:02:05;;;;;;;0.00;0.00;;;;;;;;;;5046270;28;20058;-61
2022/05/22 06:04:32;;;;;;;0.00;0.00;;;;;;;;;;5046090;28;20061;-61
2022/05/22 06:06:58;;;;;;;0.00;0.00;;;;;;;;;;5045898;28;20088;-61
2022/05/22 06:09:25;;;;;;;0.00;0.00;;;;;;;;;;5046198;28;20088;-61
2022/05/22 06:11:51;;;;;;;0.00;0.00;;;;;;;;;;5046412;28;20061;-61
2022/05/22 06:14:17;;;;;;;0.00;0.00;;;;;;;;;;5045653;28;20064;-61
2022/05/22 06:16:44;;;;;;;0.00;0.00;;;;;;;;;;5046517;28;20055;-61
2022/05/22 06:19:10;;;;;;;0.00;0.00;;;;;;;;;;5046837;28;20053;-61
2022/05/22 06:21:36;;;;;;;0.00;0.00;;;;;;;;;;5045711;28;20053;-61
2022/05/22 06:24:03;;;;;;;0.00;0.00;;;;;;;;;;5046315;28;20062;-61
2022/05/22 06:26:29;;;;;;;0.00;0.00;;;;;;;;;;5046409;28;20053;-61
2022/05/22 06:28:56;;;;;;;0.00;0.00;;;;;;;;;;5046206;28;20092;-61
2022/05/22 06:31:24;;;;;;;0.00;0.00;;;;;;;;;;5045293;28;20120;-61
2022/05/22 06:33:50;;;;;;;0.00;0.00;;;;;;;;;;5046238;28;20112;-61
2022/05/22 06:36:16;;;;;;;0.00;0.00;;;;;;;;;;5045737;28;20626;-61
2022/05/22 06:41:28;;;;;;;0.00;0.00;;;;;;;;;;5046006;28;20491;-61
2022/05/22 06:43:54;;;;;;;0.00;0.00;;;;;;;;;;5045803;28;20053;-61
2022/05/22 06:46:31;;;;;;;0.00;0.00;;;;;;;;;;5054766;28;20057;-61
2022/05/22 06:48:58;;;;;;;0.00;0.00;;;;;;;;;;5066407;28;20061;-61
2022/05/22 06:51:24;;;;;;;0.00;0.00;;;;;;;;;;5067686;28;20138;-61
2022/05/22 06:53:51;;;;;;;0.00;0.00;;;;;;;;;;5068487;28;20088;-61
2022/05/22 06:56:17;;;;;;;0.00;0.00;;;;;;;;;;5069244;28;20053;-61
2022/05/22 06:58:44;;;;;;;0.00;0.00;;;;;;;;;;5069542;28;20110;-61
2022/05/22 07:01:12;;;;;;;0.00;0.00;;;;;;;;;;5069104;28;20052;-61
2022/05/22 07:03:40;;;;;;;0.00;0.00;;;;;;;;;;5069266;28;20064;-61
2022/05/22 07:06:06;;;;;;;0.00;0.00;;;;;;;;;;5068949;28;20147;-61
2022/05/22 07:08:33;;;;;;;0.00;0.00;;;;;;;;;;5068618;28;20077;-61
2022/05/22 07:13:44;;;;;;;0.00;0.00;;;;;;;;;;5068771;28;20099;-61
2022/05/22 07:16:10;;;;;;;0.00;0.00;;;;;;;;;;5068753;28;20053;-61
2022/05/22 07:18:50;;;;;;;0.00;0.00;;;;;;;;;;5068044;28;20056;-61
2022/05/22 07:21:16;;;;;;;0.00;0.00;;;;;;;;;;5068597;28;20553;-61
2022/05/22 07:23:43;;;;;;;0.00;0.00;;;;;;;;;;5068524;28;20474;-61
2022/05/22 07:26:09;;;;;;;0.00;0.00;;;;;;;;;;5069894;28;20103;-61
2022/05/22 07:28:35;;;;;;;0.00;0.00;;;;;;;;;;5068430;28;20158;-61
2022/05/22 07:31:02;;;;;;;0.00;0.00;;;;;;;;;;5068781;28;20083;-61
2022/05/22 07:33:28;;;;;;;0.00;0.00;;;;;;;;;;5068465;28;20130;-61
2022/05/22 07:35:55;;;;;;;0.00;0.00;;;;;;;;;;5068375;28;20053;-61
2022/05/22 07:38:22;;;;;;;0.00;0.00;;;;;;;;;;5067547;28;20092;-61
2022/05/22 07:40:49;;;;;;;0.00;0.00;;;;;;;;;;5068697;28;20118;-61
2022/05/22 07:43:16;;;;;;;0.00;0.00;;;;;;;;;;5068635;28;20898;-61
2022/05/22 07:45:42;;;;;;;0.00;0.00;;;;;;;;;;5068833;28;20098;-61
2022/05/22 07:48:09;;;;;;;0.00;0.00;;;;;;;;;;5068537;28;20144;-61
2022/05/22 07:50:36;;;;;;;0.00;0.00;;;;;;;;;;5068051;28;20053;-61
2022/05/22 07:53:03;;;;;;;0.00;0.00;;;;;;;;;;5067950;28;20053;-61
2022/05/22 07:55:30;;;;;;;0.00;0.00;;;;;;;;;;5067994;28;20052;-61
2022/05/22 07:57:56;;;;;;;0.00;0.00;;;;;;;;;;5068351;28;20911;-61
2022/05/22 08:00:22;;;;;;;0.00;0.00;;;;;;;;;;5066716;28;20080;-61
2022/05/22 08:02:49;;;;;;;0.00;0.00;;;;;;;;;;5068952;28;20967;-61
2022/05/22 08:05:17;;;;;;;0.15;0.13;;;;;;;;;;5068414;28;20103;-62
2022/05/22 08:07:43;;;;;;;0.00;0.00;;;;;;;;;;5069201;28;20107;-61
2022/05/22 08:10:10;;;;;;;0.00;0.00;;;;;;;;;;5068021;28;20491;-61
2022/05/22 08:12:37;;;;;;;0.13;0.13;;;;;;;;;;5067477;28;20107;-61
2022/05/22 08:15:05;;;;;;;0.00;0.00;;;;;;;;;;5067922;28;20127;-62
2022/05/22 08:17:36;;;;;;;0.00;0.00;;;;;;;;;;5067504;28;20127;-61
2022/05/22 08:20:03;;;;;;;0.10;0.10;;;;;;;;;;5067651;28;20158;-61
2022/05/22 08:22:30;;;;;;;0.00;0.00;;;;;;;;;;5067674;28;20053;-61
2022/05/22 08:24:57;;;;;;;0.00;0.00;;;;;;;;;;5068173;28;20511;-61
2022/05/22 08:27:23;;;;;;;0.00;0.00;;;;;;;;;;5068005;28;20080;-61
2022/05/22 08:29:50;;;;;;;0.20;0.20;;;;;;;;;;5068447;28;20084;-61
2022/05/22 08:32:19;;;;;;;0.00;0.00;;;;;;;;;;5066327;28;20579;-61
2022/05/22 08:34:46;;;;;;;0.00;0.00;;;;;;;;;;5068200;28;20823;-61
2022/05/22 08:37:12;;;;;;;0.00;0.00;;;;;;;;;;5067600;28;20545;-61
2022/05/22 08:39:38;;;;;;;0.00;0.00;;;;;;;;;;5067720;28;20056;-61
2022/05/22 08:42:07;;;;;;;0.00;0.00;;;;;;;;;;5068100;28;20150;-61
2022/05/22 08:44:34;;;;;;;0.00;0.00;;;;;;;;;;5068095;28;20049;-61
2022/05/22 08:47:04;;;;;;;0.00;0.00;;;;;;;;;;5067680;28;20138;-61
2022/05/22 08:49:35;;;;;;;0.00;0.00;;;;;;;;;;5067660;28;20084;-61
2022/05/22 08:52:13;;;;;;;0.00;0.00;;;;;;;;;;5068117;28;20106;-61
2022/05/22 08:54:41;;;;;;;0.00;0.00;;;;;;;;;;5067735;28;20526;-61
2022/05/22 09:00:32;;;;;;;0.08;0.05;;;;;;;;;;5066857;28;20430;-61
2022/05/22 09:03:17;;;;;;;0.00;0.00;;;;;;;;;;5066946;28;20189;-61
2022/05/22 09:05:44;;;;;;;0.00;0.00;;;;;;;;;;5067734;28;20057;-61
2022/05/22 09:08:18;;;;;;;0.00;0.00;;;;;;;;;;5067764;28;20675;-61
2022/05/22 09:11:04;;;;;;;0.00;0.00;;;;;;;;;;5067084;28;20052;-61
2022/05/22 09:13:33;;;;;;;0.00;0.00;;;;;;;;;;5066790;28;20130;-61
2022/05/22 09:16:10;;;;;;;0.10;0.10;;;;;;;;;;5067157;28;20057;-61
2022/05/22 09:18:37;;;;;;;0.00;0.00;;;;;;;;;;5066733;28;20063;-61
2022/05/22 09:21:03;;;;;;;0.00;0.00;;;;;;;;;;5067191;28;20088;-61
2022/05/22 09:23:50;;;;;;;0.05;0.05;;;;;;;;;;5066965;28;20049;-61
2022/05/22 09:26:35;;;;;;;0.00;0.00;;;;;;;;;;5066624;28;20499;-61
2022/05/22 09:29:20;;;;;;;0.00;0.00;;;;;;;;;;5067005;28;20053;-61
2022/05/22 09:32:07;;;;;;;0.00;0.00;;;;;;;;;;5066964;28;20052;-61
2022/05/22 09:34:33;;;;;;;1.58;1.48;;;;;;;;;;5025350;28;20084;-61
2022/05/22 09:37:06;;;;;;;0.38;0.38;;;;;;;;;;5067032;28;20053;-61
2022/05/22 09:39:50;;;;;;;0.00;0.00;;;;;;;;;;5067156;28;20081;-61
2022/05/22 09:42:35;;;;;;;0.00;0.00;;;;;;;;;;5066655;28;20057;-61
2022/05/22 09:45:20;;;;;;;0.00;0.00;;;;;;;;;;5066394;28;20085;-61
2022/05/22 09:47:58;;;;;;;0.00;0.00;;;;;;;;;;5066482;28;20491;-61
2022/05/22 09:50:48;;;;;;;0.20;0.20;;;;;;;;;;5066586;28;21423;-61
2022/05/22 09:53:34;;;;;;;0.00;0.00;;;;;;;;;;5066687;28;20099;-61
2022/05/22 09:56:23;;;;;;;0.00;0.00;;;;;;;;;;5066031;28;20057;-61
2022/05/22 09:59:07;;;;;;;0.00;0.00;;;;;;;;;;5055608;28;20528;-61
2022/05/22 10:01:36;;;;;;;0.00;0.00;;;;;;;;;;5066556;28;20053;-61
2022/05/22 10:04:21;;;;;;;0.00;0.00;;;;;;;;;;5067566;28;20059;-61
2022/05/22 10:07:07;;;;;;;0.68;0.20;;;;;;;;;;5065613;28;20061;-61
2022/05/22 10:09:43;;;;;;;0.00;0.00;;;;;;;;;;5052380;28;20057;-61
2022/05/22 10:12:23;;;;;;;0.00;0.00;;;;;;;;;;5066543;28;20085;-61
2022/05/22 10:14:56;;;;;;;0.00;0.00;;;;;;;;;;5066144;28;20537;-61
2022/05/22 10:17:48;;;;;;;0.00;0.00;;;;;;;;;;5066391;28;20103;-61
2022/05/22 10:20:31;;;;;;;0.00;0.00;;;;;;;;;;5066151;28;20053;-62
2022/05/22 10:23:03;;;;;;;0.00;0.00;;;;;;;;;;5067729;28;20059;-62
2022/05/22 10:25:48;;;;;;;0.08;0.08;;;;;;;;;;5070326;28;20056;-62
2022/05/22 10:28:40;;;;;;;0.00;0.00;;;;;;;;;;5069836;28;20057;-61
2022/05/22 10:31:09;;;;;;;0.00;0.00;;;;;;;;;;5038569;28;20475;-62
2022/05/22 10:33:36;;;;;;;0.00;0.00;;;;;;;;;;5069315;28;20053;-62
2022/05/22 10:36:17;;;;;;;0.00;0.00;;;;;;;;;;5069857;28;20556;-62
2022/05/22 10:38:47;;;;;;;5.82;0.20;;;;;;;;;;5070124;28;20499;-62
2022/05/22 10:44:15;;;;;;;0.00;0.00;;;;;;;;;;5068756;28;20511;-62
2022/05/22 10:46:46;;;;;;;0.00;0.00;;;;;;;;;;5069372;28;20065;-62
2022/05/22 10:49:12;;;;;;;0.00;0.00;;;;;;;;;;5069658;28;20096;-62
2022/05/22 10:51:39;;;;;;;0.00;0.00;;;;;;;;;;5069950;28;20565;-62
2022/05/22 10:54:05;;;;;;;0.00;0.00;;;;;;;;;;5069624;28;20103;-62
2022/05/22 10:56:33;;;;;;;0.00;0.00;;;;;;;;;;5068936;28;20577;-62
2022/05/22 10:59:03;;;;;;;0.00;0.00;;;;;;;;;;5069344;28;20499;-61
2022/05/22 11:01:32;;;;;;;0.30;0.30;;;;;;;;;;5069307;28;20041;-62
2022/05/22 11:04:02;;;;;;;0.00;0.00;;;;;;;;;;5068478;28;20060;-62
2022/05/22 11:06:28;;;;;;;0.00;0.00;;;;;;;;;;5068715;28;20048;-62
2022/05/22 11:08:55;;;;;;;0.00;0.00;;;;;;;;;;5069185;28;20103;-62
2022/05/22 11:11:23;;;;;;;0.00;0.00;;;;;;;;;;5069613;28;20087;-62
2022/05/22 11:13:53;;;;;;;0.10;0.10;;;;;;;;;;5069470;28;20056;-62
2022/05/22 11:16:25;;;;;;;0.00;0.00;;;;;;;;;;5068793;28;20138;-62
2022/05/22 11:19:04;;;;;;;0.00;0.00;;;;;;;;;;5069241;28;20057;-62
2022/05/22 11:21:36;;;;;;;0.00;0.00;;;;;;;;;;5068961;28;20057;-62
2022/05/22 11:24:21;;;;;;;0.10;0.10;;;;;;;;;;5069055;28;20057;-62
2022/05/22 11:26:59;;;;;;;0.00;0.00;;;;;;;;;;5068676;28;20103;-62
2022/05/22 11:29:37;;;;;;;0.00;0.00;;;;;;;;;;5068335;28;20138;-62
2022/05/22 11:32:09;;;;;;;0.00;0.00;;;;;;;;;;5068912;28;20061;-62
2022/05/22 11:34:43;;;;;;;0.00;0.00;;;;;;;;;;5068610;28;20207;-62
2022/05/22 11:37:28;;;;;;;0.00;0.00;;;;;;;;;;5068931;28;20102;-62
2022/05/22 11:40:00;;;;;;;0.00;0.00;;;;;;;;;;5068716;28;20053;-62
2022/05/22 11:42:30;;;;;;;0.00;0.00;;;;;;;;;;5068030;28;20079;-62
2022/05/22 11:45:15;;;;;;;0.00;0.00;;;;;;;;;;5068413;28;20057;-62
2022/05/22 11:47:47;;;;;;;0.00;0.00;;;;;;;;;;5059497;28;20115;-62
2022/05/22 11:50:24;;;;;;;0.00;0.00;;;;;;;;;;5047414;28;20088;-62
2022/05/22 11:52:54;;;;;;;0.00;0.00;;;;;;;;;;5046619;28;20050;-61
2022/05/22 11:55:26;;;;;;;0.00;0.00;;;;;;;;;;5046710;28;20547;-62
2022/05/22 11:58:11;;;;;;;0.00;0.00;;;;;;;;;;5047282;28;20109;-62
2022/05/22 12:00:37;;;;;;;0.00;0.00;;;;;;;;;;5048006;28;20119;-62
2022/05/22 12:03:27;;;;;;;0.00;0.00;;;;;;;;;;5048424;28;20119;-62
2022/05/22 12:06:02;;;;;;;0.00;0.00;;;;;;;;;;5037170;28;20734;-62
2022/05/22 12:08:41;;;;;;;0.00;0.00;;;;;;;;;;5047508;28;20061;-62
2022/05/22 12:11:07;;;;;;;0.00;0.00;;;;;;;;;;5047910;28;20108;-62
2022/05/22 12:13:40;;;;;;;0.00;0.00;;;;;;;;;;5047224;28;20053;-62
2022/05/22 12:16:19;;;;;;;0.00;0.00;;;;;;;;;;5048079;28;20111;-62
2022/05/22 12:19:10;;;;;;;0.00;0.00;;;;;;;;;;5047865;28;20180;-62
2022/05/22 12:21:47;;;;;;;0.00;0.00;;;;;;;;;;5048404;28;20980;-62
2022/05/22 12:24:26;;;;;;;0.00;0.00;;;;;;;;;;5047668;28;20062;-62
2022/05/22 12:26:53;;;;;;;0.08;0.00;;;;;;;;;;5047379;28;20113;-62
2022/05/22 12:29:25;;;;;;;0.00;0.00;;;;;;;;;;5048329;28;20115;-62
2022/05/22 12:31:53;;;;;;;0.00;0.00;;;;;;;;;;5048268;28;20049;-62
2022/05/22 12:34:32;;;;;;;1.35;1.25;;;;;;;;;;5047729;28;20049;-62
2022/05/22 12:37:00;;;;;;;0.00;0.00;;;;;;;;;;5046723;28;20065;-62
2022/05/22 12:39:29;;;;;;;0.00;0.00;;;;;;;;;;5047814;28;20054;-62
2022/05/22 12:42:01;;;;;;;0.00;0.00;;;;;;;;;;5047891;28;20563;-62
2022/05/22 12:44:28;;;;;;;0.03;0.03;;;;;;;;;;5047065;28;20491;-62
2022/05/22 12:46:56;;;;;;;0.00;0.00;;;;;;;;;;5047073;28;20985;-62
2022/05/22 12:49:27;;;;;;;0.00;0.00;;;;;;;;;;5047047;28;20065;-62
2022/05/22 12:52:02;;;;;;;5.13;3.30;;;;;;;;;;5047537;28;21027;-62
2022/05/22 12:54:30;;;;;;;0.00;0.00;;;;;;;;;;5046949;28;20057;-62
2022/05/22 12:57:11;;;;;;;0.00;0.00;;;;;;;;;;5047292;28;20108;-62
2022/05/22 12:59:37;;;;;;;0.00;0.00;;;;;;;;;;5046751;28;20652;-62
2022/05/22 13:02:04;;;;;;;0.00;0.00;;;;;;;;;;5047320;28;20062;-62
2022/05/22 13:04:35;;;;;;;0.00;0.00;;;;;;;;;;5047573;28;20053;-62
2022/05/22 13:07:01;;;;;;;0.00;0.00;;;;;;;;;;5047065;28;20052;-62
2022/05/22 13:09:30;;;;;;;0.00;0.00;;;;;;;;;;5046667;28;20084;-62
2022/05/22 13:12:03;;;;;;;0.00;0.00;;;;;;;;;;5047211;28;20549;-62
2022/05/22 13:14:31;;;;;;;0.00;0.00;;;;;;;;;;5047299;28;20050;-62
2022/05/22 13:16:57;;;;;;;0.00;0.00;;;;;;;;;;5047296;28;20061;-62
2022/05/22 13:19:29;;;;;;;0.00;0.00;;;;;;;;;;5046762;28;20056;-62
2022/05/22 13:21:56;;;;;;;0.00;0.00;;;;;;;;;;5046185;28;20103;-62
2022/05/22 13:24:25;;;;;;;0.00;0.00;;;;;;;;;;5046548;28;20284;-63
2022/05/22 13:27:14;;;;;;;0.00;0.00;;;;;;;;;;5047206;28;20444;-62
2022/05/22 13:29:57;;;;;;;0.00;0.00;;;;;;;;;;5009347;28;20106;-62
2022/05/22 13:32:30;;;;;;;0.00;0.00;;;;;;;;;;5046296;28;20057;-62
2022/05/22 13:34:57;;;;;;;0.00;0.00;;;;;;;;;;5046406;28;20103;-62
2022/05/22 13:37:27;;;;;;;0.00;0.00;;;;;;;;;;5046409;28;20061;-62
2022/05/22 13:39:57;;;;;;;0.00;0.00;;;;;;;;;;5046860;28;20057;-62
2022/05/22 13:42:29;;;;;;;0.00;0.00;;;;;;;;;;5046231;28;20080;-62
2022/05/22 13:44:59;;;;;;;0.00;0.00;;;;;;;;;;5047107;28;20060;-62
2022/05/22 13:47:44;;;;;;;0.00;0.00;;;;;;;;;;5047035;28;20116;-62
2022/05/22 13:53:01;;;;;;;0.10;0.10;;;;;;;;;;5046521;28;20518;-62
2022/05/22 13:55:28;;;;;;;0.00;0.00;;;;;;;;;;5045780;28;20058;-62
2022/05/22 13:57:58;;;;;;;0.00;0.00;;;;;;;;;;5047690;28;20071;-62
2022/05/22 14:00:27;;;;;;;0.00;0.00;;;;;;;;;;5049617;28;20053;-62
2022/05/22 14:02:54;;;;;;;0.00;0.00;;;;;;;;;;5050517;28;20053;-62
2022/05/22 14:05:20;;;;;;;0.47;0.30;;;;;;;;;;5049787;28;20108;-62
2022/05/22 14:07:51;;;;;;;0.00;0.00;;;;;;;;;;5049569;28;20073;-62
2022/05/22 14:10:33;;;;;;;0.00;0.00;;;;;;;;;;5049399;28;20057;-62
2022/05/22 14:13:18;;;;;;;0.00;0.00;;;;;;;;;;5050259;28;20057;-62
2022/05/22 14:15:52;;;;;;;0.10;0.10;;;;;;;;;;5049764;28;20804;-62
2022/05/22 14:18:21;;;;;;;0.00;0.00;;;;;;;;;;5049504;28;20519;-62
2022/05/22 14:20:48;;;;;;;0.10;0.10;;;;;;;;;;5048927;28;20110;-62
2022/05/22 14:23:18;;;;;;;0.08;0.08;;;;;;;;;;5049445;28;20103;-62
2022/05/22 14:25:45;;;;;;;0.00;0.00;;;;;;;;;;5049927;28;20061;-62
2022/05/22 14:28:12;;;;;;;0.00;0.00;;;;;;;;;;5049543;28;20894;-62
2022/05/22 14:30:40;;;;;;;0.00;0.00;;;;;;;;;;5049502;28;20112;-62
2022/05/22 14:33:17;;;;;;;0.00;0.00;;;;;;;;;;5050088;28;20144;-62
2022/05/22 14:35:45;;;;;;;0.00;0.00;;;;;;;;;;5050271;28;20084;-62
2022/05/22 14:38:15;;;;;;;0.00;0.00;;;;;;;;;;5049298;28;20511;-62
2022/05/22 14:40:49;;;;;;;0.00;0.00;;;;;;;;;;5049497;28;20107;-62
2022/05/22 14:43:17;;;;;;;0.00;0.00;;;;;;;;;;5050012;28;20103;-62
2022/05/22 14:45:49;;;;;;;0.28;0.28;;;;;;;;;;5049242;28;20508;-62
2022/05/22 14:48:17;;;;;;;0.00;0.00;;;;;;;;;;5049326;28;20053;-62
2022/05/22 14:50:52;;;;;;;0.00;0.00;;;;;;;;;;5049656;28;20049;-62
2022/05/22 14:53:25;;;;;;;0.35;0.32;;;;;;;;;;5048640;28;20057;-62
2022/05/22 14:55:56;;;;;;;0.00;0.00;;;;;;;;;;5049242;28;20073;-62
2022/05/22 14:58:24;;;;;;;0.00;0.00;;;;;;;;;;5048981;28;20542;-62
2022/05/22 15:00:52;;;;;;;0.00;0.00;;;;;;;;;;5048752;28;20045;-62
2022/05/22 15:03:21;;;;;;;0.00;0.00;;;;;;;;;;5048472;28;20050;-62
2022/05/22 15:05:53;;;;;;;0.00;0.00;;;;;;;;;;5049010;28;20579;-62
2022/05/22 15:08:30;;;;;;;0.47;0.47;;;;;;;;;;5048537;28;20058;-62
2022/05/22 15:11:36;;;;;;;0.00;0.00;;;;;;;;;;5049340;28;20053;-62
2022/05/22 15:14:11;;;;;;;0.00;0.00;;;;;;;;;;5004218;28;20081;-62
2022/05/22 15:16:39;;;;;;;0.00;0.00;;;;;;;;;;5048101;28;20589;-62
2022/05/22 15:22:02;;;;;;;0.08;0.08;;;;;;;;;;5048869;28;20053;-62
2022/05/22 15:27:13;;;;;;;0.00;0.00;;;;;;;;;;5048250;28;20053;-62